sensor_id;sensor_type;location;lat;lon;timestamp;pressure;altitude;pressure_sealevel;temperature;humidity
6778;BME280;3426;52.244;10.534;2023-03-03T00:00:42;101552.25;;;4.18;74.33
6778;BME280;3426;52.244;10.534;2023-03-03T00:03:11;101561.06;;;3.38;76.34
6778;BME280;3426;52.244;10.534;2023-03-03T00:05:40;101542.66;;;2.46;78.90
6778;BME280;3426;52.244;10.534;2023-03-03T00:08:08;101549.34;;;2.85;79.00
6778;BME280;3426;52.244;10.534;2023-03-03T00:10:36;101552.06;;;2.73;80.33
6778;BME280;3426;52.244;10.534;2023-03-03T00:13:03;101553.59;;;3.83;77.10
6778;BME280;3426;52.244;10.534;2023-03-03T00:15:30;101547.53;;;3.78;75.28
6778;BME280;3426;52.244;10.534;2023-03-03T00:17:57;101547.75;;;3.57;75.69
6778;BME280;3426;52.244;10.534;2023-03-03T00:20:38;101550.00;;;3.92;74.98
6778;BME280;3426;52.244;10.534;2023-03-03T00:23:30;101552.59;;;3.90;74.75
6778;BME280;3426;52.244;10.534;2023-03-03T00:26:01;101557.16;;;2.88;77.81
6778;BME280;3426;52.244;10.534;2023-03-03T00:28:48;101555.50;;;3.69;76.98
6778;BME280;3426;52.244;10.534;2023-03-03T00:31:26;101560.78;;;3.63;75.71
6778;BME280;3426;52.244;10.534;2023-03-03T00:34:09;101561.38;;;3.89;74.04
6778;BME280;3426;52.244;10.534;2023-03-03T00:36:42;101577.22;;;3.77;76.40
6778;BME280;3426;52.244;10.534;2023-03-03T00:41:54;101582.31;;;3.92;74.91
6778;BME280;3426;52.244;10.534;2023-03-03T00:47:18;101580.56;;;3.07;76.93
6778;BME280;3426;52.244;10.534;2023-03-03T00:49:48;101588.00;;;2.42;80.83
6778;BME280;3426;52.244;10.534;2023-03-03T00:52:18;101586.28;;;2.36;81.49
6778;BME280;3426;52.244;10.534;2023-03-03T00:54:46;101585.19;;;2.70;79.98
6778;BME280;3426;52.244;10.534;2023-03-03T00:57:12;101582.47;;;2.83;78.79
6778;BME280;3426;52.244;10.534;2023-03-03T00:59:39;101584.44;;;2.52;82.27
6778;BME280;3426;52.244;10.534;2023-03-03T01:02:06;101577.06;;;3.08;79.78
6778;BME280;3426;52.244;10.534;2023-03-03T01:04:32;101577.22;;;3.77;76.58
6778;BME280;3426;52.244;10.534;2023-03-03T01:06:59;101574.69;;;3.71;76.95
6778;BME280;3426;52.244;10.534;2023-03-03T01:09:25;101578.81;;;3.07;79.28
6778;BME280;3426;52.244;10.534;2023-03-03T01:11:51;101570.88;;;3.15;80.01
6778;BME280;3426;52.244;10.534;2023-03-03T01:14:18;101564.38;;;3.56;78.12
6778;BME280;3426;52.244;10.534;2023-03-03T01:16:45;101560.63;;;2.90;78.37
6778;BME280;3426;52.244;10.534;2023-03-03T01:19:11;101565.22;;;2.61;79.21
6778;BME280;3426;52.244;10.534;2023-03-03T01:21:38;101565.06;;;3.75;76.33
6778;BME280;3426;52.244;10.534;2023-03-03T01:24:05;101571.41;;;2.48;79.67
6778;BME280;3426;52.244;10.534;2023-03-03T01:26:31;101573.88;;;2.69;79.97
6778;BME280;3426;52.244;10.534;2023-03-03T01:28:58;101567.09;;;3.47;78.26
6778;BME280;3426;52.244;10.534;2023-03-03T01:31:24;101569.25;;;3.00;80.65
6778;BME280;3426;52.244;10.534;2023-03-03T01:33:51;101558.91;;;3.74;75.76
6778;BME280;3426;52.244;10.534;2023-03-03T01:36:25;101561.16;;;4.06;75.98
6778;BME280;3426;52.244;10.534;2023-03-03T01:38:51;101563.63;;;3.44;76.86
6778;BME280;3426;52.244;10.534;2023-03-03T01:41:18;101570.34;;;3.67;77.84
6778;BME280;3426;52.244;10.534;2023-03-03T01:43:47;101548.88;;;4.10;74.51
6778;BME280;3426;52.244;10.534;2023-03-03T01:48:55;101546.44;;;3.19;77.33
6778;BME280;3426;52.244;10.534;2023-03-03T01:51:34;101555.84;;;2.29;81.10
6778;BME280;3426;52.244;10.534;2023-03-03T01:54:06;101564.16;;;2.83;80.95
6778;BME280;3426;52.244;10.534;2023-03-03T01:56:35;101575.69;;;2.55;81.60
6778;BME280;3426;52.244;10.534;2023-03-03T01:59:04;101564.59;;;3.34;79.80
6778;BME280;3426;52.244;10.534;2023-03-03T02:01:32;101566.78;;;2.85;79.68
6778;BME280;3426;52.244;10.534;2023-03-03T02:03:59;101569.28;;;3.86;77.35
6778;BME280;3426;52.244;10.534;2023-03-03T02:06:33;101575.03;;;3.37;78.68
6778;BME280;3426;52.244;10.534;2023-03-03T02:09:16;101565.06;;;3.75;76.51
6778;BME280;3426;52.244;10.534;2023-03-03T02:11:45;101561.19;;;4.05;76.42
6778;BME280;3426;52.244;10.534;2023-03-03T02:14:14;101545.38;;;3.34;77.85
6778;BME280;3426;52.244;10.534;2023-03-03T02:16:40;101533.84;;;4.22;75.82
6778;BME280;3426;52.244;10.534;2023-03-03T02:19:15;101549.47;;;3.61;76.58
6778;BME280;3426;52.244;10.534;2023-03-03T02:21:43;101561.66;;;2.71;79.12
6778;BME280;3426;52.244;10.534;2023-03-03T02:24:27;101545.47;;;4.02;76.24
6778;BME280;3426;52.244;10.534;2023-03-03T02:26:58;101541.84;;;4.15;74.83
6778;BME280;3426;52.244;10.534;2023-03-03T02:29:25;101535.06;;;3.98;74.51
6778;BME280;3426;52.244;10.534;2023-03-03T02:31:51;101544.56;;;3.30;77.06
6778;BME280;3426;52.244;10.534;2023-03-03T02:34:18;101530.38;;;3.53;76.52
6778;BME280;3426;52.244;10.534;2023-03-03T02:36:44;101533.91;;;3.49;76.23
6778;BME280;3426;52.244;10.534;2023-03-03T02:39:16;101524.47;;;4.05;76.01
6778;BME280;3426;52.244;10.534;2023-03-03T02:42:07;101523.16;;;4.38;74.91
6778;BME280;3426;52.244;10.534;2023-03-03T02:44:35;101537.81;;;3.05;77.97
6778;BME280;3426;52.244;10.534;2023-03-03T02:47:01;101537.09;;;2.90;78.85
6778;BME280;3426;52.244;10.534;2023-03-03T02:49:33;101542.88;;;3.26;79.60
6778;BME280;3426;52.244;10.534;2023-03-03T02:52:02;101528.59;;;3.55;76.17
6778;BME280;3426;52.244;10.534;2023-03-03T02:54:29;101531.69;;;3.09;79.34
6778;BME280;3426;52.244;10.534;2023-03-03T02:56:57;101524.72;;;3.85;78.07
6778;BME280;3426;52.244;10.534;2023-03-03T02:59:23;101523.44;;;4.16;74.68
6778;BME280;3426;52.244;10.534;2023-03-03T03:01:50;101516.31;;;4.24;73.44
6778;BME280;3426;52.244;10.534;2023-03-03T03:04:22;101520.78;;;4.21;72.98
6778;BME280;3426;52.244;10.534;2023-03-03T03:06:51;101523.38;;;4.19;74.07
6778;BME280;3426;52.244;10.534;2023-03-03T03:09:19;101524.75;;;3.83;75.86
6778;BME280;3426;52.244;10.534;2023-03-03T03:11:47;101524.13;;;3.64;77.03
6778;BME280;3426;52.244;10.534;2023-03-03T03:14:13;101529.56;;;4.17;74.27
6778;BME280;3426;52.244;10.534;2023-03-03T03:16:40;101522.06;;;3.89;74.75
6778;BME280;3426;52.244;10.534;2023-03-03T03:19:07;101525.22;;;4.16;74.50
6778;BME280;3426;52.244;10.534;2023-03-03T03:21:34;101543.66;;;3.33;77.34
6778;BME280;3426;52.244;10.534;2023-03-03T03:24:00;101532.03;;;4.28;75.28
6778;BME280;3426;52.244;10.534;2023-03-03T03:26:27;101530.22;;;3.65;78.05
6778;BME280;3426;52.244;10.534;2023-03-03T03:28:53;101536.25;;;4.36;74.88
6778;BME280;3426;52.244;10.534;2023-03-03T03:31:20;101534.44;;;4.41;74.11
6778;BME280;3426;52.244;10.534;2023-03-03T03:33:47;101531.09;;;3.65;75.24
6778;BME280;3426;52.244;10.534;2023-03-03T03:36:14;101536.25;;;4.38;74.72
6778;BME280;3426;52.244;10.534;2023-03-03T03:38:41;101526.50;;;4.46;73.38
6778;BME280;3426;52.244;10.534;2023-03-03T03:41:07;101530.13;;;3.72;74.75
6778;BME280;3426;52.244;10.534;2023-03-03T03:43:34;101524.19;;;4.26;74.12
6778;BME280;3426;52.244;10.534;2023-03-03T03:46:00;101528.03;;;4.01;75.97
6778;BME280;3426;52.244;10.534;2023-03-03T03:48:27;101540.13;;;3.37;76.12
6778;BME280;3426;52.244;10.534;2023-03-03T03:50:54;101536.94;;;3.87;76.00
6778;BME280;3426;52.244;10.534;2023-03-03T03:53:20;101538.34;;;4.13;75.95
6778;BME280;3426;52.244;10.534;2023-03-03T03:55:47;101534.34;;;4.47;74.30
6778;BME280;3426;52.244;10.534;2023-03-03T03:58:14;101536.81;;;4.60;72.97
6778;BME280;3426;52.244;10.534;2023-03-03T04:00:43;101541.00;;;4.70;72.13
6778;BME280;3426;52.244;10.534;2023-03-03T04:03:10;101544.13;;;4.36;74.57
6778;BME280;3426;52.244;10.534;2023-03-03T04:05:37;101554.28;;;4.59;72.22
6778;BME280;3426;52.244;10.534;2023-03-03T04:08:04;101554.97;;;4.72;72.12
6778;BME280;3426;52.244;10.534;2023-03-03T04:10:30;101555.41;;;4.43;72.04
6778;BME280;3426;52.244;10.534;2023-03-03T04:12:57;101552.94;;;4.31;74.83
6778;BME280;3426;52.244;10.534;2023-03-03T04:15:23;101560.22;;;4.72;72.80
6778;BME280;3426;52.244;10.534;2023-03-03T04:17:50;101554.66;;;4.35;73.52
6778;BME280;3426;52.244;10.534;2023-03-03T04:20:16;101549.16;;;4.51;72.09
6778;BME280;3426;52.244;10.534;2023-03-03T04:22:43;101555.00;;;4.69;72.52
6778;BME280;3426;52.244;10.534;2023-03-03T04:25:13;101551.66;;;4.61;71.28
6778;BME280;3426;52.244;10.534;2023-03-03T04:27:40;101549.72;;;4.70;72.22
6778;BME280;3426;52.244;10.534;2023-03-03T04:30:08;101566.34;;;3.35;76.75
6778;BME280;3426;52.244;10.534;2023-03-03T04:32:35;101546.13;;;4.20;74.10
6778;BME280;3426;52.244;10.534;2023-03-03T04:35:02;101556.16;;;3.85;76.21
6778;BME280;3426;52.244;10.534;2023-03-03T04:37:34;101569.38;;;3.77;75.19
6778;BME280;3426;52.244;10.534;2023-03-03T04:40:03;101569.91;;;3.27;75.72
6778;BME280;3426;52.244;10.534;2023-03-03T04:42:30;101564.22;;;3.71;75.21
6778;BME280;3426;52.244;10.534;2023-03-03T04:44:56;101559.44;;;4.04;73.46
6778;BME280;3426;52.244;10.534;2023-03-03T04:47:23;101571.94;;;2.94;78.49
6778;BME280;3426;52.244;10.534;2023-03-03T04:49:49;101566.97;;;3.59;75.57
6778;BME280;3426;52.244;10.534;2023-03-03T04:52:16;101564.28;;;4.34;72.90
6778;BME280;3426;52.244;10.534;2023-03-03T04:54:42;101561.22;;;4.00;73.07
6778;BME280;3426;52.244;10.534;2023-03-03T04:57:09;101568.44;;;4.47;71.67
6778;BME280;3426;52.244;10.534;2023-03-03T04:59:35;101578.78;;;3.93;72.36
6778;BME280;3426;52.244;10.534;2023-03-03T05:02:02;101592.34;;;3.54;76.15
6778;BME280;3426;52.244;10.534;2023-03-03T05:04:30;101588.91;;;3.47;78.12
6778;BME280;3426;52.244;10.534;2023-03-03T05:06:57;101575.91;;;4.13;73.20
6778;BME280;3426;52.244;10.534;2023-03-03T05:09:23;101560.56;;;4.49;73.30
6778;BME280;3426;52.244;10.534;2023-03-03T05:11:50;101570.34;;;4.36;73.23
6778;BME280;3426;52.244;10.534;2023-03-03T05:14:17;101560.03;;;4.24;74.78
6778;BME280;3426;52.244;10.534;2023-03-03T05:16:43;101556.91;;;4.59;72.59
6778;BME280;3426;52.244;10.534;2023-03-03T05:19:11;101557.75;;;3.99;72.73
6778;BME280;3426;52.244;10.534;2023-03-03T05:21:38;101556.66;;;4.16;72.49
6778;BME280;3426;52.244;10.534;2023-03-03T05:24:08;101553.25;;;4.71;71.40
6778;BME280;3426;52.244;10.534;2023-03-03T05:26:35;101551.38;;;4.79;70.10
6778;BME280;3426;52.244;10.534;2023-03-03T05:29:02;101548.63;;;4.85;70.29
6778;BME280;3426;52.244;10.534;2023-03-03T05:31:29;101546.50;;;4.55;70.23
6778;BME280;3426;52.244;10.534;2023-03-03T05:33:55;101538.75;;;4.45;72.23
6778;BME280;3426;52.244;10.534;2023-03-03T05:36:22;101530.56;;;4.67;69.90
6778;BME280;3426;52.244;10.534;2023-03-03T05:38:48;101534.81;;;4.17;71.51
6778;BME280;3426;52.244;10.534;2023-03-03T05:41:15;101521.56;;;4.26;72.27
6778;BME280;3426;52.244;10.534;2023-03-03T05:43:41;101530.16;;;4.36;71.09
6778;BME280;3426;52.244;10.534;2023-03-03T05:46:09;101532.22;;;4.12;72.86
6778;BME280;3426;52.244;10.534;2023-03-03T05:48:35;101536.25;;;4.38;70.92
6778;BME280;3426;52.244;10.534;2023-03-03T05:51:02;101533.53;;;4.42;70.42
6778;BME280;3426;52.244;10.534;2023-03-03T05:53:28;101536.59;;;4.73;70.06
6778;BME280;3426;52.244;10.534;2023-03-03T05:55:55;101549.34;;;4.39;71.09
6778;BME280;3426;52.244;10.534;2023-03-03T05:58:22;101555.91;;;4.68;70.37
6778;BME280;3426;52.244;10.534;2023-03-03T06:00:49;101551.56;;;4.67;69.79
6778;BME280;3426;52.244;10.534;2023-03-03T06:03:15;101564.69;;;4.67;70.38
6778;BME280;3426;52.244;10.534;2023-03-03T06:05:42;101566.06;;;4.88;70.03
6778;BME280;3426;52.244;10.534;2023-03-03T06:08:09;101566.06;;;4.89;69.86
6778;BME280;3426;52.244;10.534;2023-03-03T06:10:35;101563.75;;;4.09;72.37
6778;BME280;3426;52.244;10.534;2023-03-03T06:13:02;101572.66;;;4.61;72.05
6778;BME280;3426;52.244;10.534;2023-03-03T06:15:28;101572.34;;;4.20;71.67
6778;BME280;3426;52.244;10.534;2023-03-03T06:17:55;101580.34;;;4.08;71.85
6778;BME280;3426;52.244;10.534;2023-03-03T06:20:21;101589.19;;;4.64;71.70
6778;BME280;3426;52.244;10.534;2023-03-03T06:22:48;101585.31;;;4.31;72.41
6778;BME280;3426;52.244;10.534;2023-03-03T06:25:14;101588.78;;;4.33;71.12
6778;BME280;3426;52.244;10.534;2023-03-03T06:27:41;101599.00;;;4.51;71.40
6778;BME280;3426;52.244;10.534;2023-03-03T06:30:08;101590.00;;;4.71;69.95
6778;BME280;3426;52.244;10.534;2023-03-03T06:32:34;101593.03;;;3.71;73.12
6778;BME280;3426;52.244;10.534;2023-03-03T06:35:01;101595.50;;;3.83;75.04
6778;BME280;3426;52.244;10.534;2023-03-03T06:37:27;101599.19;;;3.65;76.06
6778;BME280;3426;52.244;10.534;2023-03-03T06:39:55;101598.34;;;3.63;75.12
6778;BME280;3426;52.244;10.534;2023-03-03T06:42:21;101595.41;;;3.92;74.69
6778;BME280;3426;52.244;10.534;2023-03-03T06:44:50;101597.34;;;4.44;72.86
6778;BME280;3426;52.244;10.534;2023-03-03T06:47:16;101599.63;;;4.03;73.36
6778;BME280;3426;52.244;10.534;2023-03-03T06:49:43;101592.69;;;4.66;72.09
6778;BME280;3426;52.244;10.534;2023-03-03T06:52:16;101604.22;;;3.87;72.57
6778;BME280;3426;52.244;10.534;2023-03-03T06:54:44;101597.44;;;4.38;72.85
6778;BME280;3426;52.244;10.534;2023-03-03T06:57:24;101593.03;;;4.40;71.87
6778;BME280;3426;52.244;10.534;2023-03-03T06:59:56;101607.81;;;3.77;73.17
6778;BME280;3426;52.244;10.534;2023-03-03T07:02:23;101610.56;;;3.63;75.24
6778;BME280;3426;52.244;10.534;2023-03-03T07:04:52;101609.78;;;3.58;74.97
6778;BME280;3426;52.244;10.534;2023-03-03T07:07:22;101610.81;;;4.18;73.78
6778;BME280;3426;52.244;10.534;2023-03-03T07:09:54;101609.56;;;4.45;73.04
6778;BME280;3426;52.244;10.534;2023-03-03T07:12:40;101609.75;;;4.33;71.45
6778;BME280;3426;52.244;10.534;2023-03-03T07:17:49;101623.63;;;3.66;74.75
6778;BME280;3426;52.244;10.534;2023-03-03T07:20:23;101608.97;;;4.25;72.42
6778;BME280;3426;52.244;10.534;2023-03-03T07:22:50;101628.59;;;3.90;74.21
6778;BME280;3426;52.244;10.534;2023-03-03T07:25:31;101623.03;;;4.84;71.34
6778;BME280;3426;52.244;10.534;2023-03-03T07:28:23;101629.19;;;4.17;73.94
6778;BME280;3426;52.244;10.534;2023-03-03T07:30:51;101635.81;;;3.71;75.41
6778;BME280;3426;52.244;10.534;2023-03-03T07:33:42;101630.38;;;3.91;74.56
6778;BME280;3426;52.244;10.534;2023-03-03T07:36:25;101631.63;;;4.31;74.28
6778;BME280;3426;52.244;10.534;2023-03-03T07:38:55;101623.38;;;4.60;73.02
6778;BME280;3426;52.244;10.534;2023-03-03T07:41:22;101640.59;;;4.14;73.52
6778;BME280;3426;52.244;10.534;2023-03-03T07:46:56;101645.19;;;3.92;75.04
6778;BME280;3426;52.244;10.534;2023-03-03T07:49:23;101656.75;;;3.71;76.96
6778;BME280;3426;52.244;10.534;2023-03-03T07:51:58;101649.19;;;3.39;76.92
6778;BME280;3426;52.244;10.534;2023-03-03T07:56:58;101648.13;;;3.62;76.43
6778;BME280;3426;52.244;10.534;2023-03-03T07:59:27;101654.69;;;4.01;76.21
6778;BME280;3426;52.244;10.534;2023-03-03T08:01:55;101648.66;;;4.65;74.24
6778;BME280;3426;52.244;10.534;2023-03-03T08:04:52;101661.78;;;4.64;72.28
6778;BME280;3426;52.244;10.534;2023-03-03T08:07:21;101662.53;;;4.03;74.78
6778;BME280;3426;52.244;10.534;2023-03-03T08:09:50;101663.78;;;4.45;75.42
6778;BME280;3426;52.244;10.534;2023-03-03T08:15:30;101663.19;;;4.23;74.46
6778;BME280;3426;52.244;10.534;2023-03-03T08:18:18;101662.34;;;4.86;72.02
6778;BME280;3426;52.244;10.534;2023-03-03T08:20:51;101657.44;;;4.63;72.40
6778;BME280;3426;52.244;10.534;2023-03-03T08:23:18;101659.88;;;5.32;70.97
6778;BME280;3426;52.244;10.534;2023-03-03T08:25:46;101660.44;;;4.34;74.62
6778;BME280;3426;52.244;10.534;2023-03-03T08:28:18;101653.81;;;5.30;70.70
6778;BME280;3426;52.244;10.534;2023-03-03T08:30:46;101652.25;;;4.60;72.79
6778;BME280;3426;52.244;10.534;2023-03-03T08:33:13;101662.31;;;4.22;72.76
6778;BME280;3426;52.244;10.534;2023-03-03T08:35:40;101663.94;;;4.34;74.14
6778;BME280;3426;52.244;10.534;2023-03-03T08:38:08;101664.25;;;4.77;72.57
6778;BME280;3426;52.244;10.534;2023-03-03T08:40:34;101665.56;;;5.04;71.07
6778;BME280;3426;52.244;10.534;2023-03-03T08:43:02;101660.78;;;5.31;70.12
6778;BME280;3426;52.244;10.534;2023-03-03T08:45:28;101676.94;;;4.43;73.62
6778;BME280;3426;52.244;10.534;2023-03-03T08:47:55;101668.06;;;5.14;71.47
6778;BME280;3426;52.244;10.534;2023-03-03T08:50:22;101667.31;;;5.59;70.16
6778;BME280;3426;52.244;10.534;2023-03-03T08:52:48;101664.75;;;5.55;69.53
6778;BME280;3426;52.244;10.534;2023-03-03T08:55:15;101673.16;;;5.24;70.62
6778;BME280;3426;52.244;10.534;2023-03-03T08:57:41;101664.69;;;4.42;73.20
6778;BME280;3426;52.244;10.534;2023-03-03T09:00:11;101668.91;;;4.56;72.86
6778;BME280;3426;52.244;10.534;2023-03-03T09:02:38;101680.84;;;4.09;75.56
6778;BME280;3426;52.244;10.534;2023-03-03T09:05:05;101671.91;;;4.27;73.12
6778;BME280;3426;52.244;10.534;2023-03-03T09:07:32;101668.44;;;5.43;70.68
6778;BME280;3426;52.244;10.534;2023-03-03T09:09:58;101662.41;;;5.38;70.41
6778;BME280;3426;52.244;10.534;2023-03-03T09:12:49;101675.34;;;4.30;73.89
6778;BME280;3426;52.244;10.534;2023-03-03T09:17:42;101666.22;;;4.59;73.35
6778;BME280;3426;52.244;10.534;2023-03-03T09:22:57;101662.63;;;5.26;71.09
6778;BME280;3426;52.244;10.534;2023-03-03T09:25:31;101662.25;;;5.47;69.96
6778;BME280;3426;52.244;10.534;2023-03-03T09:27:59;101668.09;;;4.50;72.86
6778;BME280;3426;52.244;10.534;2023-03-03T09:30:43;101663.00;;;5.01;70.90
6778;BME280;3426;52.244;10.534;2023-03-03T09:33:30;101658.13;;;4.77;72.45
6778;BME280;3426;52.244;10.534;2023-03-03T09:38:50;101656.59;;;4.61;72.70
6778;BME280;3426;52.244;10.534;2023-03-03T09:41:45;101664.00;;;4.94;73.95
6778;BME280;3426;52.244;10.534;2023-03-03T09:55:34;101673.31;;;5.14;73.23
6778;BME280;3426;52.244;10.534;2023-03-03T10:03:45;101671.31;;;4.72;73.90
6778;BME280;3426;52.244;10.534;2023-03-03T10:06:28;101683.00;;;4.48;74.43
6778;BME280;3426;52.244;10.534;2023-03-03T10:12:26;101676.56;;;4.72;71.82
6778;BME280;3426;52.244;10.534;2023-03-03T10:15:17;101676.97;;;5.03;71.84
6778;BME280;3426;52.244;10.534;2023-03-03T10:20:35;101677.09;;;4.96;71.89
6778;BME280;3426;52.244;10.534;2023-03-03T10:25:53;101675.63;;;5.83;68.33
6778;BME280;3426;52.244;10.534;2023-03-03T10:37:12;101679.75;;;4.94;70.50
6778;BME280;3426;52.244;10.534;2023-03-03T10:39:56;101670.38;;;5.32;69.03
6778;BME280;3426;52.244;10.534;2023-03-03T10:45:42;101673.09;;;5.29;71.08
6778;BME280;3426;52.244;10.534;2023-03-03T10:50:58;101668.63;;;5.85;69.33
6778;BME280;3426;52.244;10.534;2023-03-03T11:02:26;101671.19;;;6.33;67.39
6778;BME280;3426;52.244;10.534;2023-03-03T11:07:34;101670.22;;;5.43;70.91
6778;BME280;3426;52.244;10.534;2023-03-03T11:16:13;101663.06;;;5.52;71.47
6778;BME280;3426;52.244;10.534;2023-03-03T11:21:50;101662.22;;;5.50;71.58
6778;BME280;3426;52.244;10.534;2023-03-03T11:24:48;101662.09;;;5.58;70.34
6778;BME280;3426;52.244;10.534;2023-03-03T11:27:37;101664.47;;;5.19;71.69
6778;BME280;3426;52.244;10.534;2023-03-03T11:33:00;101655.22;;;5.51;70.51
6778;BME280;3426;52.244;10.534;2023-03-03T11:36:10;101649.28;;;6.32;68.02
6778;BME280;3426;52.244;10.534;2023-03-03T11:41:59;101640.63;;;5.81;69.78
6778;BME280;3426;52.244;10.534;2023-03-03T11:44:23;101645.53;;;5.53;69.99
6778;BME280;3426;52.244;10.534;2023-03-03T11:46:57;101642.19;;;5.93;70.48
6778;BME280;3426;52.244;10.534;2023-03-03T11:49:49;101635.06;;;5.99;69.23
6778;BME280;3426;52.244;10.534;2023-03-03T11:55:12;101636.41;;;5.72;68.85
6778;BME280;3426;52.244;10.534;2023-03-03T11:58:07;101635.78;;;6.49;67.02
6778;BME280;3426;52.244;10.534;2023-03-03T12:00:56;101632.25;;;6.08;68.99
6778;BME280;3426;52.244;10.534;2023-03-03T12:14:04;101619.97;;;6.09;65.79
6778;BME280;3426;52.244;10.534;2023-03-03T12:16:38;101610.31;;;6.50;65.93
6778;BME280;3426;52.244;10.534;2023-03-03T12:41:39;101591.22;;;6.42;65.24
6778;BME280;3426;52.244;10.534;2023-03-03T12:44:20;101602.94;;;7.04;64.26
6778;BME280;3426;52.244;10.534;2023-03-03T12:46:58;101603.06;;;7.34;63.04
6778;BME280;3426;52.244;10.534;2023-03-03T13:06:34;101589.13;;;7.29;63.64
6778;BME280;3426;52.244;10.534;2023-03-03T13:12:30;101586.00;;;5.98;66.63
6778;BME280;3426;52.244;10.534;2023-03-03T13:17:33;101571.56;;;6.18;66.97
6778;BME280;3426;52.244;10.534;2023-03-03T13:20:15;101569.88;;;6.91;66.15
6778;BME280;3426;52.244;10.534;2023-03-03T13:22:57;101570.53;;;7.01;63.72
6778;BME280;3426;52.244;10.534;2023-03-03T13:28:20;101567.47;;;6.82;65.58
6778;BME280;3426;52.244;10.534;2023-03-03T13:30:54;101566.06;;;7.04;64.16
6778;BME280;3426;52.244;10.534;2023-03-03T13:33:26;101567.50;;;6.43;66.08
6778;BME280;3426;52.244;10.534;2023-03-03T13:36:09;101562.34;;;7.11;64.56
6778;BME280;3426;52.244;10.534;2023-03-03T13:38:42;101555.44;;;7.73;62.03
6778;BME280;3426;52.244;10.534;2023-03-03T13:41:25;101551.50;;;7.24;63.46
6778;BME280;3426;52.244;10.534;2023-03-03T13:50:03;101544.63;;;7.18;63.61
6778;BME280;3426;52.244;10.534;2023-03-03T13:52:48;101539.53;;;7.43;64.35
6778;BME280;3426;52.244;10.534;2023-03-03T13:55:28;101524.06;;;7.63;62.38
6778;BME280;3426;52.244;10.534;2023-03-03T14:03:35;101527.38;;;6.71;65.59
6778;BME280;3426;52.244;10.534;2023-03-03T14:06:21;101519.22;;;7.15;65.87
6778;BME280;3426;52.244;10.534;2023-03-03T14:14:46;101508.75;;;7.45;63.63
6778;BME280;3426;52.244;10.534;2023-03-03T14:17:19;101502.94;;;7.34;62.64
6778;BME280;3426;52.244;10.534;2023-03-03T14:23:02;101514.94;;;6.77;64.70
6778;BME280;3426;52.244;10.534;2023-03-03T14:25:51;101513.91;;;6.83;64.85
6778;BME280;3426;52.244;10.534;2023-03-03T14:28:20;101517.47;;;6.82;66.14
6778;BME280;3426;52.244;10.534;2023-03-03T14:30:47;101515.69;;;7.16;64.34
6778;BME280;3426;52.244;10.534;2023-03-03T14:33:18;101516.09;;;7.34;64.18
6778;BME280;3426;52.244;10.534;2023-03-03T14:38:42;101512.63;;;6.99;64.22
6778;BME280;3426;52.244;10.534;2023-03-03T14:43:38;101511.94;;;6.91;66.18
6778;BME280;3426;52.244;10.534;2023-03-03T14:46:38;101513.31;;;6.72;65.19
6778;BME280;3426;52.244;10.534;2023-03-03T14:49:28;101506.34;;;6.69;66.29
6778;BME280;3426;52.244;10.534;2023-03-03T14:54:58;101507.84;;;6.81;65.19
6778;BME280;3426;52.244;10.534;2023-03-03T15:02:43;101496.78;;;7.01;64.29
6778;BME280;3426;52.244;10.534;2023-03-03T15:05:28;101503.09;;;6.58;66.57
6778;BME280;3426;52.244;10.534;2023-03-03T15:13:25;101493.47;;;6.58;65.81
6778;BME280;3426;52.244;10.534;2023-03-03T15:18:30;101495.88;;;5.92;68.49
6778;BME280;3426;52.244;10.534;2023-03-03T15:21:12;101488.66;;;6.00;68.23
6778;BME280;3426;52.244;10.534;2023-03-03T15:26:43;101487.81;;;5.99;67.20
6778;BME280;3426;52.244;10.534;2023-03-03T15:29:32;101484.22;;;5.60;69.79
6778;BME280;3426;52.244;10.534;2023-03-03T15:32:27;101485.13;;;6.02;67.01
6778;BME280;3426;52.244;10.534;2023-03-03T15:35:06;101487.00;;;5.52;69.30
6778;BME280;3426;52.244;10.534;2023-03-03T15:37:49;101474.84;;;6.29;66.45
6778;BME280;3426;52.244;10.534;2023-03-03T15:40:23;101467.78;;;5.94;68.26
6778;BME280;3426;52.244;10.534;2023-03-03T15:45:52;101465.56;;;6.14;68.56
6778;BME280;3426;52.244;10.534;2023-03-03T15:56:55;101454.06;;;5.78;68.51
6778;BME280;3426;52.244;10.534;2023-03-03T16:02:25;101464.69;;;6.52;65.66
6778;BME280;3426;52.244;10.534;2023-03-03T16:05:01;101456.53;;;6.26;68.02
6778;BME280;3426;52.244;10.534;2023-03-03T16:19:34;101463.13;;;5.65;69.91
6778;BME280;3426;52.244;10.534;2023-03-03T16:22:21;101465.38;;;5.40;70.24
6778;BME280;3426;52.244;10.534;2023-03-03T16:36:09;101470.06;;;5.24;71.41
6778;BME280;3426;52.244;10.534;2023-03-03T16:38:40;101475.94;;;6.20;68.12
6778;BME280;3426;52.244;10.534;2023-03-03T16:41:18;101475.88;;;4.95;72.63
6778;BME280;3426;52.244;10.534;2023-03-03T16:46:46;101475.75;;;5.88;69.16
6778;BME280;3426;52.244;10.534;2023-03-03T16:52:07;101466.09;;;5.91;68.56
6778;BME280;3426;52.244;10.534;2023-03-03T16:55:04;101472.19;;;5.03;71.46
6778;BME280;3426;52.244;10.534;2023-03-03T17:00:14;101468.22;;;5.27;69.84
6778;BME280;3426;52.244;10.534;2023-03-03T17:11:07;101465.28;;;5.86;67.20
6778;BME280;3426;52.244;10.534;2023-03-03T17:21:53;101475.06;;;5.79;66.85
6778;BME280;3426;52.244;10.534;2023-03-03T17:32:29;101482.72;;;6.30;65.86
6778;BME280;3426;52.244;10.534;2023-03-03T17:43:18;101479.38;;;5.82;66.91
6778;BME280;3426;52.244;10.534;2023-03-03T17:45:48;101474.41;;;5.70;67.32
6778;BME280;3426;52.244;10.534;2023-03-03T17:48:38;101481.25;;;5.77;67.45
6778;BME280;3426;52.244;10.534;2023-03-03T18:00:11;101470.16;;;6.04;67.05
6778;BME280;3426;52.244;10.534;2023-03-03T18:03:13;101468.53;;;5.99;66.92
6778;BME280;3426;52.244;10.534;2023-03-03T18:11:28;101471.44;;;6.25;65.29
6778;BME280;3426;52.244;10.534;2023-03-03T18:22:05;101471.78;;;6.10;64.72
6778;BME280;3426;52.244;10.534;2023-03-03T18:24:36;101467.41;;;6.10;64.85
6778;BME280;3426;52.244;10.534;2023-03-03T18:49:08;101462.94;;;5.74;69.71
6778;BME280;3426;52.244;10.534;2023-03-03T19:02:16;101470.59;;;5.83;68.52
6778;BME280;3426;52.244;10.534;2023-03-03T19:04:52;101467.59;;;6.03;69.20
6778;BME280;3426;52.244;10.534;2023-03-03T19:12:53;101467.59;;;5.59;70.04
6778;BME280;3426;52.244;10.534;2023-03-03T19:18:02;101465.56;;;6.14;68.08